sensor_id;sensor_type;location;lat;lon;timestamp;pressure;altitude;pressure_sealevel;temperature;humidity
73679;BME280;61978;52.742;16.962;2022-12-18T00:00:48;102588.97;;;-4.87;100.00
73679;BME280;61978;52.742;16.962;2022-12-18T00:03:15;102583.73;;;-4.73;100.00
73679;BME280;61978;52.742;16.962;2022-12-18T00:05:51;102596.56;;;-4.93;100.00
73679;BME280;61978;52.742;16.962;2022-12-18T00:08:19;102599.97;;;-5.06;100.00
73679;BME280;61978;52.742;16.962;2022-12-18T00:10:46;102596.59;;;-4.94;100.00
73679;BME280;61978;52.742;16.962;2022-12-18T00:13:13;102599.13;;;-4.91;100.00
73679;BME280;61978;52.742;16.962;2022-12-18T00:15:39;102587.66;;;-4.73;100.00
73679;BME280;61978;52.742;16.962;2022-12-18T00:18:06;102585.52;;;-4.75;100.00
73679;BME280;61978;52.742;16.962;2022-12-18T00:20:39;102584.73;;;-4.21;100.00
73679;BME280;61978;52.742;16.962;2022-12-18T00:23:07;102589.84;;;-4.44;100.00
73679;BME280;61978;52.742;16.962;2022-12-18T00:25:36;102591.16;;;-4.44;100.00
73679;BME280;61978;52.742;16.962;2022-12-18T00:28:03;102587.67;;;-4.45;100.00
73679;BME280;61978;52.742;16.962;2022-12-18T00:30:32;102587.83;;;-4.50;100.00
73679;BME280;61978;52.742;16.962;2022-12-18T00:32:59;102599.04;;;-4.59;100.00
73679;BME280;61978;52.742;16.962;2022-12-18T00:35:26;102603.84;;;-4.59;100.00
73679;BME280;61978;52.742;16.962;2022-12-18T00:37:52;102598.50;;;-4.56;100.00
73679;BME280;61978;52.742;16.962;2022-12-18T00:40:18;102607.59;;;-4.67;100.00
73679;BME280;61978;52.742;16.962;2022-12-18T00:42:45;102601.84;;;-4.80;100.00
73679;BME280;61978;52.742;16.962;2022-12-18T00:45:25;102601.48;;;-4.82;100.00
73679;BME280;61978;52.742;16.962;2022-12-18T00:47:52;102597.22;;;-4.72;100.00
73679;BME280;61978;52.742;16.962;2022-12-18T00:50:19;102601.16;;;-4.72;100.00
73679;BME280;61978;52.742;16.962;2022-12-18T00:52:45;102609.35;;;-4.68;100.00
73679;BME280;61978;52.742;16.962;2022-12-18T00:55:12;102612.95;;;-4.72;100.00
73679;BME280;61978;52.742;16.962;2022-12-18T00:57:39;102615.12;;;-4.71;100.00
73679;BME280;61978;52.742;16.962;2022-12-18T01:00:10;102619.29;;;-5.10;100.00
73679;BME280;61978;52.742;16.962;2022-12-18T01:02:37;102619.67;;;-5.23;100.00
73679;BME280;61978;52.742;16.962;2022-12-18T01:05:04;102640.53;;;-5.36;100.00
73679;BME280;61978;52.742;16.962;2022-12-18T01:07:30;102639.61;;;-5.51;100.00
73679;BME280;61978;52.742;16.962;2022-12-18T01:09:57;102644.56;;;-5.57;100.00
73679;BME280;61978;52.742;16.962;2022-12-18T01:12:23;102647.61;;;-5.74;100.00
73679;BME280;61978;52.742;16.962;2022-12-18T01:14:49;102653.87;;;-5.81;100.00
73679;BME280;61978;52.742;16.962;2022-12-18T01:17:16;102631.30;;;-5.17;100.00
73679;BME280;61978;52.742;16.962;2022-12-18T01:19:42;102635.06;;;-5.11;100.00
73679;BME280;61978;52.742;16.962;2022-12-18T01:22:09;102654.80;;;-5.48;100.00
73679;BME280;61978;52.742;16.962;2022-12-18T01:24:37;102651.39;;;-5.51;100.00
73679;BME280;61978;52.742;16.962;2022-12-18T01:27:03;102658.30;;;-5.65;100.00
73679;BME280;61978;52.742;16.962;2022-12-18T01:29:30;102655.82;;;-5.53;100.00
73679;BME280;61978;52.742;16.962;2022-12-18T01:31:56;102653.63;;;-5.52;100.00
73679;BME280;61978;52.742;16.962;2022-12-18T01:34:23;102663.81;;;-5.42;100.00
73679;BME280;61978;52.742;16.962;2022-12-18T01:36:53;102681.11;;;-5.52;100.00
73679;BME280;61978;52.742;16.962;2022-12-18T01:39:19;102682.87;;;-5.71;100.00
73679;BME280;61978;52.742;16.962;2022-12-18T01:41:46;102678.22;;;-5.59;100.00
73679;BME280;61978;52.742;16.962;2022-12-18T01:47:35;102676.47;;;-5.59;100.00
73679;BME280;61978;52.742;16.962;2022-12-18T01:50:16;102680.49;;;-5.64;100.00
73679;BME280;61978;52.742;16.962;2022-12-18T01:53:34;102668.25;;;-5.62;100.00
73679;BME280;61978;52.742;16.962;2022-12-18T01:55:19;102666.22;;;-5.50;100.00
73679;BME280;61978;52.742;16.962;2022-12-18T01:57:47;102663.59;;;-5.50;100.00
73679;BME280;61978;52.742;16.962;2022-12-18T02:00:18;102666.14;;;-5.47;100.00
73679;BME280;61978;52.742;16.962;2022-12-18T02:02:45;102669.41;;;-5.39;100.00
73679;BME280;61978;52.742;16.962;2022-12-18T02:05:18;102669.64;;;-5.48;100.00
73679;BME280;61978;52.742;16.962;2022-12-18T02:10:31;102675.67;;;-5.45;100.00
73679;BME280;61978;52.742;16.962;2022-12-18T02:18:41;102666.80;;;-5.39;100.00
73679;BME280;61978;52.742;16.962;2022-12-18T02:24:03;102674.95;;;-5.51;100.00
73679;BME280;61978;52.742;16.962;2022-12-18T02:26:30;102671.53;;;-5.53;100.00
73679;BME280;61978;52.742;16.962;2022-12-18T04:47:03;102757.05;;;-6.53;100.00
73679;BME280;61978;52.742;16.962;2022-12-18T04:49:29;102776.72;;;-6.56;100.00
73679;BME280;61978;52.742;16.962;2022-12-18T04:51:55;102769.52;;;-6.23;100.00
73679;BME280;61978;52.742;16.962;2022-12-18T04:54:23;102772.81;;;-6.34;100.00
73679;BME280;61978;52.742;16.962;2022-12-18T04:56:50;102783.83;;;-6.40;100.00
73679;BME280;61978;52.742;16.962;2022-12-18T04:59:16;102788.30;;;-6.45;100.00
73679;BME280;61978;52.742;16.962;2022-12-18T05:01:43;102800.03;;;-6.67;100.00
73679;BME280;61978;52.742;16.962;2022-12-18T05:04:12;102789.29;;;-6.74;100.00
73679;BME280;61978;52.742;16.962;2022-12-18T05:06:38;102790.99;;;-6.73;100.00
73679;BME280;61978;52.742;16.962;2022-12-18T05:09:06;102805.14;;;-6.85;100.00
73679;BME280;61978;52.742;16.962;2022-12-18T05:11:33;102784.61;;;-6.57;100.00
73679;BME280;61978;52.742;16.962;2022-12-18T05:14:02;102789.08;;;-6.20;100.00
73679;BME280;61978;52.742;16.962;2022-12-18T05:16:28;102797.30;;;-6.17;100.00
73679;BME280;61978;52.742;16.962;2022-12-18T05:18:55;102813.52;;;-6.43;100.00
73679;BME280;61978;52.742;16.962;2022-12-18T05:21:21;102823.05;;;-6.64;100.00
73679;BME280;61978;52.742;16.962;2022-12-18T05:23:48;102826.36;;;-6.78;100.00
73679;BME280;61978;52.742;16.962;2022-12-18T05:26:17;102821.52;;;-6.74;100.00
73679;BME280;61978;52.742;16.962;2022-12-18T05:28:43;102825.66;;;-6.88;100.00
73679;BME280;61978;52.742;16.962;2022-12-18T05:31:10;102830.50;;;-6.92;100.00
73679;BME280;61978;52.742;16.962;2022-12-18T05:33:37;102823.42;;;-6.84;100.00
73679;BME280;61978;52.742;16.962;2022-12-18T05:36:06;102814.72;;;-6.38;100.00
73679;BME280;61978;52.742;16.962;2022-12-18T05:44:18;102837.84;;;-6.17;100.00
73679;BME280;61978;52.742;16.962;2022-12-18T05:46:45;102837.78;;;-6.14;100.00
73679;BME280;61978;52.742;16.962;2022-12-18T05:49:11;102848.16;;;-6.32;100.00
73679;BME280;61978;52.742;16.962;2022-12-18T05:51:41;102845.98;;;-6.32;100.00
73679;BME280;61978;52.742;16.962;2022-12-18T05:54:09;102853.98;;;-6.41;100.00
73679;BME280;61978;52.742;16.962;2022-12-18T05:56:35;102853.28;;;-6.49;100.00
73679;BME280;61978;52.742;16.962;2022-12-18T05:59:01;102858.98;;;-6.51;100.00
73679;BME280;61978;52.742;16.962;2022-12-18T06:01:27;102871.23;;;-6.53;100.00
73679;BME280;61978;52.742;16.962;2022-12-18T06:03:54;102873.52;;;-6.60;100.00
73679;BME280;61978;52.742;16.962;2022-12-18T06:06:25;102881.91;;;-6.67;100.00
73679;BME280;61978;52.742;16.962;2022-12-18T06:08:53;102879.40;;;-6.73;100.00
73679;BME280;61978;52.742;16.962;2022-12-18T06:11:22;102883.47;;;-6.82;100.00
73679;BME280;61978;52.742;16.962;2022-12-18T06:13:53;102894.63;;;-6.98;100.00
73679;BME280;61978;52.742;16.962;2022-12-18T06:16:20;102896.33;;;-6.95;100.00
73679;BME280;61978;52.742;16.962;2022-12-18T06:18:46;102888.64;;;-6.79;100.00
73679;BME280;61978;52.742;16.962;2022-12-18T06:21:14;102889.55;;;-6.80;100.00
73679;BME280;61978;52.742;16.962;2022-12-18T06:23:41;102888.49;;;-6.70;100.00
73679;BME280;61978;52.742;16.962;2022-12-18T06:26:10;102886.75;;;-6.69;100.00
73679;BME280;61978;52.742;16.962;2022-12-18T06:28:37;102891.48;;;-6.66;100.00
73679;BME280;61978;52.742;16.962;2022-12-18T06:31:04;102888.00;;;-6.66;100.00
73679;BME280;61978;52.742;16.962;2022-12-18T06:33:32;102895.50;;;-6.72;100.00
73679;BME280;61978;52.742;16.962;2022-12-18T06:36:12;102893.76;;;-6.71;100.00
73679;BME280;61978;52.742;16.962;2022-12-18T06:38:41;102893.14;;;-6.62;100.00
73679;BME280;61978;52.742;16.962;2022-12-18T06:41:16;102895.41;;;-6.67;100.00
73679;BME280;61978;52.742;16.962;2022-12-18T06:43:44;102889.59;;;-6.58;100.00
73679;BME280;61978;52.742;16.962;2022-12-18T06:46:11;102896.67;;;-6.64;100.00
73679;BME280;61978;52.742;16.962;2022-12-18T06:48:38;102908.63;;;-6.77;100.00
73679;BME280;61978;52.742;16.962;2022-12-18T06:51:06;102918.34;;;-6.85;100.00
73679;BME280;61978;52.742;16.962;2022-12-18T06:53:32;102910.51;;;-6.85;100.00
73679;BME280;61978;52.742;16.962;2022-12-18T06:56:06;102912.59;;;-6.80;100.00
73679;BME280;61978;52.742;16.962;2022-12-18T06:58:33;102909.48;;;-6.74;100.00
73679;BME280;61978;52.742;16.962;2022-12-18T07:01:02;102921.16;;;-6.70;100.00
73679;BME280;61978;52.742;16.962;2022-12-18T07:03:29;102935.23;;;-6.79;100.00
73679;BME280;61978;52.742;16.962;2022-12-18T07:05:55;102943.73;;;-6.93;100.00
73679;BME280;61978;52.742;16.962;2022-12-18T07:08:22;102960.10;;;-7.10;100.00
73679;BME280;61978;52.742;16.962;2022-12-18T07:10:48;102957.80;;;-7.03;100.00
73679;BME280;61978;52.742;16.962;2022-12-18T07:13:17;102952.53;;;-6.98;100.00
73679;BME280;61978;52.742;16.962;2022-12-18T07:15:44;102947.17;;;-6.91;100.00
73679;BME280;61978;52.742;16.962;2022-12-18T07:18:10;102951.62;;;-6.96;100.00
73679;BME280;61978;52.742;16.962;2022-12-18T07:20:37;102941.03;;;-6.87;100.00
73679;BME280;61978;52.742;16.962;2022-12-18T07:23:04;102957.62;;;-6.91;100.00
73679;BME280;61978;52.742;16.962;2022-12-18T07:25:34;102962.03;;;-6.94;100.00
73679;BME280;61978;52.742;16.962;2022-12-18T07:28:04;102983.48;;;-7.35;100.00
73679;BME280;61978;52.742;16.962;2022-12-18T07:30:33;102977.91;;;-7.42;100.00
73679;BME280;61978;52.742;16.962;2022-12-18T07:32:59;102978.30;;;-7.38;100.00
73679;BME280;61978;52.742;16.962;2022-12-18T07:35:25;102983.02;;;-7.32;100.00
73679;BME280;61978;52.742;16.962;2022-12-18T07:37:52;102989.10;;;-7.31;100.00
73679;BME280;61978;52.742;16.962;2022-12-18T07:40:19;102991.12;;;-7.20;100.00
73679;BME280;61978;52.742;16.962;2022-12-18T07:42:47;103003.39;;;-7.25;100.00
73679;BME280;61978;52.742;16.962;2022-12-18T07:45:13;103006.03;;;-7.28;100.00
73679;BME280;61978;52.742;16.962;2022-12-18T07:47:39;103008.69;;;-7.33;100.00
73679;BME280;61978;52.742;16.962;2022-12-18T07:50:07;103008.72;;;-7.34;100.00
73679;BME280;61978;52.742;16.962;2022-12-18T07:52:36;103010.42;;;-7.33;100.00
73679;BME280;61978;52.742;16.962;2022-12-18T07:55:04;103017.75;;;-7.25;100.00
73679;BME280;61978;52.742;16.962;2022-12-18T07:57:30;103013.16;;;-7.08;100.00
73679;BME280;61978;52.742;16.962;2022-12-18T07:59:57;103012.25;;;-7.04;100.00
73679;BME280;61978;52.742;16.962;2022-12-18T08:02:23;103026.62;;;-7.04;100.00
73679;BME280;61978;52.742;16.962;2022-12-18T08:11:43;103013.14;;;-6.77;100.00
73679;BME280;61978;52.742;16.962;2022-12-18T08:14:41;103010.18;;;-6.81;100.00
73679;BME280;61978;52.742;16.962;2022-12-18T08:29:45;103007.20;;;-6.56;100.00
73679;BME280;61978;52.742;16.962;2022-12-18T08:32:12;102997.19;;;-6.57;100.00
73679;BME280;61978;52.742;16.962;2022-12-18T08:34:39;102990.95;;;-6.48;100.00
73679;BME280;61978;52.742;16.962;2022-12-18T08:37:05;102986.98;;;-6.45;100.00
73679;BME280;61978;52.742;16.962;2022-12-18T08:39:34;102978.98;;;-6.36;100.00
73679;BME280;61978;52.742;16.962;2022-12-18T08:42:02;102984.22;;;-6.36;100.00
73679;BME280;61978;52.742;16.962;2022-12-18T08:44:49;102980.34;;;-6.39;100.00
73679;BME280;61978;52.742;16.962;2022-12-18T08:47:19;102988.09;;;-6.35;100.00
73679;BME280;61978;52.742;16.962;2022-12-18T08:49:47;102990.60;;;-6.27;100.00
73679;BME280;61978;52.742;16.962;2022-12-18T08:52:14;102973.02;;;-6.19;100.00
73679;BME280;61978;52.742;16.962;2022-12-18T08:54:41;102959.01;;;-5.71;100.00
73679;BME280;61978;52.742;16.962;2022-12-18T08:57:08;102970.55;;;-5.58;100.00
73679;BME280;61978;52.742;16.962;2022-12-18T08:59:35;102977.88;;;-5.77;100.00
73679;BME280;61978;52.742;16.962;2022-12-18T09:02:17;102979.34;;;-6.07;100.00
73679;BME280;61978;52.742;16.962;2022-12-18T09:04:50;102981.73;;;-6.18;100.00
73679;BME280;61978;52.742;16.962;2022-12-18T09:07:45;102981.30;;;-6.18;100.00
73679;BME280;61978;52.742;16.962;2022-12-18T09:10:33;102983.96;;;-6.21;100.00
73679;BME280;61978;52.742;16.962;2022-12-18T09:16:42;102974.92;;;-6.03;100.00
73679;BME280;61978;52.742;16.962;2022-12-18T09:21:38;102981.24;;;-6.15;100.00
73679;BME280;61978;52.742;16.962;2022-12-18T09:24:11;102982.23;;;-5.97;100.00
73679;BME280;61978;52.742;16.962;2022-12-18T09:26:37;102974.72;;;-5.93;100.00
73679;BME280;61978;52.742;16.962;2022-12-18T09:29:09;102973.28;;;-5.85;100.00
73679;BME280;61978;52.742;16.962;2022-12-18T09:31:38;102980.72;;;-5.88;100.00
73679;BME280;61978;52.742;16.962;2022-12-18T10:30:43;102989.55;;;-5.71;100.00
73679;BME280;61978;52.742;16.962;2022-12-18T10:33:17;102989.16;;;-5.74;100.00
73679;BME280;61978;52.742;16.962;2022-12-18T10:35:45;102981.65;;;-5.70;100.00
73679;BME280;61978;52.742;16.962;2022-12-18T10:40:51;102980.85;;;-5.51;100.00
73679;BME280;61978;52.742;16.962;2022-12-18T10:43:29;102975.06;;;-5.46;100.00
73679;BME280;61978;52.742;16.962;2022-12-18T10:48:53;102974.16;;;-5.23;100.00
73679;BME280;61978;52.742;16.962;2022-12-18T10:51:26;102974.28;;;-5.08;100.00
73679;BME280;61978;52.742;16.962;2022-12-18T10:54:15;102978.47;;;-5.20;100.00
73679;BME280;61978;52.742;16.962;2022-12-18T10:56:43;102976.80;;;-5.24;100.00
73679;BME280;61978;52.742;16.962;2022-12-18T10:59:12;102975.17;;;-5.30;100.00
73679;BME280;61978;52.742;16.962;2022-12-18T11:04:25;102975.48;;;-5.23;100.00
73679;BME280;61978;52.742;16.962;2022-12-18T11:07:00;102965.48;;;-5.06;100.00
73679;BME280;61978;52.742;16.962;2022-12-18T11:09:32;102970.19;;;-5.21;100.00
73679;BME280;61978;52.742;16.962;2022-12-18T11:14:47;102967.27;;;-5.28;100.00
73679;BME280;61978;52.742;16.962;2022-12-18T11:17:24;102965.37;;;-5.20;100.00
73679;BME280;61978;52.742;16.962;2022-12-18T11:19:55;102977.98;;;-5.18;100.00
73679;BME280;61978;52.742;16.962;2022-12-18T11:22:28;102965.17;;;-5.11;100.00
73679;BME280;61978;52.742;16.962;2022-12-18T11:25:00;102972.34;;;-5.00;100.00
73679;BME280;61978;52.742;16.962;2022-12-18T11:27:28;102957.73;;;-4.91;100.00
73679;BME280;61978;52.742;16.962;2022-12-18T11:30:13;102958.98;;;-4.89;100.00
73679;BME280;61978;52.742;16.962;2022-12-18T11:32:44;102955.28;;;-4.81;100.00
73679;BME280;61978;52.742;16.962;2022-12-18T11:35:20;102947.90;;;-4.81;100.00
73679;BME280;61978;52.742;16.962;2022-12-18T11:37:51;102947.49;;;-4.84;100.00
73679;BME280;61978;52.742;16.962;2022-12-18T11:40:24;102950.91;;;-4.80;100.00
73679;BME280;61978;52.742;16.962;2022-12-18T11:42:54;102946.95;;;-4.79;100.00
73679;BME280;61978;52.742;16.962;2022-12-18T11:45:29;102956.13;;;-4.79;100.00
73679;BME280;61978;52.742;16.962;2022-12-18T11:48:21;102964.95;;;-4.64;100.00
73679;BME280;61978;52.742;16.962;2022-12-18T11:50:57;102968.18;;;-4.72;100.00
73679;BME280;61978;52.742;16.962;2022-12-18T11:53:21;102978.52;;;-4.66;100.00
73679;BME280;61978;52.742;16.962;2022-12-18T11:56:05;102976.53;;;-4.55;100.00
73679;BME280;61978;52.742;16.962;2022-12-18T12:10:01;102985.34;;;-4.39;100.00
73679;BME280;61978;52.742;16.962;2022-12-18T12:12:38;102990.48;;;-4.36;100.00
73679;BME280;61978;52.742;16.962;2022-12-18T12:20:23;102996.20;;;-4.37;100.00
73679;BME280;61978;52.742;16.962;2022-12-18T12:23:00;103001.08;;;-4.39;100.00
73679;BME280;61978;52.742;16.962;2022-12-18T12:33:56;103002.47;;;-4.25;100.00
73679;BME280;61978;52.742;16.962;2022-12-18T12:36:19;102997.09;;;-4.20;100.00
73679;BME280;61978;52.742;16.962;2022-12-18T12:38:51;102998.11;;;-4.26;100.00
73679;BME280;61978;52.742;16.962;2022-12-18T12:41:22;102990.23;;;-4.26;100.00
73679;BME280;61978;52.742;16.962;2022-12-18T12:44:12;102995.70;;;-4.17;100.00
73679;BME280;61978;52.742;16.962;2022-12-18T12:46:39;102992.56;;;-4.31;100.00
73679;BME280;61978;52.742;16.962;2022-12-18T12:49:15;102990.26;;;-4.27;100.00
73679;BME280;61978;52.742;16.962;2022-12-18T12:51:53;102985.20;;;-4.17;100.00
73679;BME280;61978;52.742;16.962;2022-12-18T12:54:23;102982.08;;;-4.15;100.00
73679;BME280;61978;52.742;16.962;2022-12-18T12:56:54;102973.97;;;-4.06;100.00
73679;BME280;61978;52.742;16.962;2022-12-18T13:08:12;102982.56;;;-4.16;100.00
73679;BME280;61978;52.742;16.962;2022-12-18T13:10:42;102980.19;;;-4.26;100.00
73679;BME280;61978;52.742;16.962;2022-12-18T13:13:12;102978.95;;;-4.29;100.00
73679;BME280;61978;52.742;16.962;2022-12-18T13:22:28;102966.05;;;-4.21;100.00
73679;BME280;61978;52.742;16.962;2022-12-18T13:24:54;102966.72;;;-4.30;100.00
73679;BME280;61978;52.742;16.962;2022-12-18T13:33:41;102955.37;;;-4.13;100.00
73679;BME280;61978;52.742;16.962;2022-12-18T13:36:13;102967.41;;;-4.06;100.00
73679;BME280;61978;52.742;16.962;2022-12-18T13:38:42;102969.80;;;-4.13;100.00
73679;BME280;61978;52.742;16.962;2022-12-18T13:43:50;102976.45;;;-4.16;100.00
73679;BME280;61978;52.742;16.962;2022-12-18T13:46:30;102973.11;;;-4.07;100.00
73679;BME280;61978;52.742;16.962;2022-12-18T13:49:02;102976.13;;;-4.04;100.00
73679;BME280;61978;52.742;16.962;2022-12-18T13:51:32;102975.63;;;-4.02;100.00
73679;BME280;61978;52.742;16.962;2022-12-18T13:56:42;102983.08;;;-4.03;100.00
73679;BME280;61978;52.742;16.962;2022-12-18T13:59:17;102989.35;;;-4.09;100.00
73679;BME280;61978;52.742;16.962;2022-12-18T14:01:50;102992.50;;;-4.12;100.00
73679;BME280;61978;52.742;16.962;2022-12-18T14:04:34;102985.57;;;-4.15;100.00
73679;BME280;61978;52.742;16.962;2022-12-18T14:07:12;102992.92;;;-4.11;100.00
73679;BME280;61978;52.742;16.962;2022-12-18T14:18:01;102998.40;;;-4.20;100.00
73679;BME280;61978;52.742;16.962;2022-12-18T14:20:31;103003.36;;;-4.10;100.00
73679;BME280;61978;52.742;16.962;2022-12-18T14:22:58;103015.90;;;-4.21;100.00
73679;BME280;61978;52.742;16.962;2022-12-18T14:25:27;103015.80;;;-4.16;100.00
73679;BME280;61978;52.742;16.962;2022-12-18T14:30:38;103024.34;;;-4.08;100.00
73679;BME280;61978;52.742;16.962;2022-12-18T14:36:02;103023.05;;;-4.27;100.00
73679;BME280;61978;52.742;16.962;2022-12-18T14:38:38;103027.39;;;-4.25;100.00
73679;BME280;61978;52.742;16.962;2022-12-18T14:41:10;103024.30;;;-4.24;100.00
73679;BME280;61978;52.742;16.962;2022-12-18T14:43:40;103026.37;;;-4.19;100.00
73679;BME280;61978;52.742;16.962;2022-12-18T14:46:25;103027.39;;;-4.25;100.00
73679;BME280;61978;52.742;16.962;2022-12-18T14:48:41;103037.96;;;-4.28;100.00
73679;BME280;61978;52.742;16.962;2022-12-18T14:51:20;103043.30;;;-4.32;100.00
73679;BME280;61978;52.742;16.962;2022-12-18T14:53:53;103048.47;;;-4.29;100.00
73679;BME280;61978;52.742;16.962;2022-12-18T14:56:25;103045.70;;;-4.23;100.00
73679;BME280;61978;52.742;16.962;2022-12-18T14:59:02;103047.53;;;-4.27;100.00
73679;BME280;61978;52.742;16.962;2022-12-18T15:01:28;103052.34;;;-4.26;100.00
73679;BME280;61978;52.742;16.962;2022-12-18T15:03:56;103048.05;;;-4.30;100.00
73679;BME280;61978;52.742;16.962;2022-12-18T15:06:29;103042.19;;;-4.22;100.00
73679;BME280;61978;52.742;16.962;2022-12-18T15:08:57;103028.05;;;-3.99;100.00
73679;BME280;61978;52.742;16.962;2022-12-18T15:27:03;102999.06;;;-3.62;100.00
73679;BME280;61978;52.742;16.962;2022-12-18T15:29:30;102987.83;;;-3.53;100.00
73679;BME280;61978;52.742;16.962;2022-12-18T15:32:04;102992.70;;;-3.54;100.00
73679;BME280;61978;52.742;16.962;2022-12-18T15:34:32;102986.38;;;-3.63;100.00
73679;BME280;61978;52.742;16.962;2022-12-18T15:36:59;102997.66;;;-3.75;100.00
73679;BME280;61978;52.742;16.962;2022-12-18T15:39:26;103001.22;;;-3.94;100.00
73679;BME280;61978;52.742;16.962;2022-12-18T15:41:53;103014.19;;;-4.04;100.00
73679;BME280;61978;52.742;16.962;2022-12-18T15:44:38;103006.36;;;-3.89;100.00
73679;BME280;61978;52.742;16.962;2022-12-18T15:47:10;103015.42;;;-4.01;100.00
73679;BME280;61978;52.742;16.962;2022-12-18T15:49:37;103018.72;;;-4.11;100.00
73679;BME280;61978;52.742;16.962;2022-12-18T15:52:04;103021.35;;;-4.28;100.00
73679;BME280;61978;52.742;16.962;2022-12-18T15:54:31;103015.41;;;-4.36;100.00
73679;BME280;61978;52.742;16.962;2022-12-18T15:57:19;103018.03;;;-4.36;100.00
73679;BME280;61978;52.742;16.962;2022-12-18T15:59:58;103013.88;;;-4.27;100.00
73679;BME280;61978;52.742;16.962;2022-12-18T16:02:23;103007.52;;;-4.17;100.00
73679;BME280;61978;52.742;16.962;2022-12-18T16:04:51;102999.41;;;-4.08;100.00
73679;BME280;61978;52.742;16.962;2022-12-18T16:07:18;103006.06;;;-4.13;100.00
73679;BME280;61978;52.742;16.962;2022-12-18T16:09:45;103014.57;;;-4.19;100.00
73679;BME280;61978;52.742;16.962;2022-12-18T16:12:17;103010.95;;;-4.15;100.00
73679;BME280;61978;52.742;16.962;2022-12-18T16:14:45;103019.74;;;-4.16;100.00
73679;BME280;61978;52.742;16.962;2022-12-18T16:17:12;103021.94;;;-4.17;100.00
73679;BME280;61978;52.742;16.962;2022-12-18T16:19:39;103023.75;;;-4.19;100.00
73679;BME280;61978;52.742;16.962;2022-12-18T16:22:15;103020.92;;;-4.29;100.00
73679;BME280;61978;52.742;16.962;2022-12-18T16:24:39;103019.02;;;-4.40;100.00
73679;BME280;61978;52.742;16.962;2022-12-18T16:27:05;103009.62;;;-4.31;100.00
73679;BME280;61978;52.742;16.962;2022-12-18T16:29:32;103008.97;;;-4.23;100.00
73679;BME280;61978;52.742;16.962;2022-12-18T16:32:01;103010.63;;;-4.19;100.00
73679;BME280;61978;52.742;16.962;2022-12-18T16:34:32;103014.64;;;-4.22;100.00
73679;BME280;61978;52.742;16.962;2022-12-18T16:37:02;103016.40;;;-4.23;100.00
73679;BME280;61978;52.742;16.962;2022-12-18T16:39:31;103013.18;;;-4.16;100.00
73679;BME280;61978;52.742;16.962;2022-12-18T16:41:58;103027.77;;;-4.22;100.00
73679;BME280;61978;52.742;16.962;2022-12-18T16:44:24;103039.06;;;-4.38;100.00
73679;BME280;61978;52.742;16.962;2022-12-18T16:46:51;103045.41;;;-4.48;100.00
73679;BME280;61978;52.742;16.962;2022-12-18T16:49:18;103042.70;;;-4.43;100.00
73679;BME280;61978;52.742;16.962;2022-12-18T16:51:48;103043.20;;;-4.28;100.00
73679;BME280;61978;52.742;16.962;2022-12-18T16:54:17;103037.39;;;-4.23;100.00
73679;BME280;61978;52.742;16.962;2022-12-18T16:56:43;103036.45;;;-4.20;100.00
73679;BME280;61978;52.742;16.962;2022-12-18T16:59:10;103036.16;;;-4.26;100.00
73679;BME280;61978;52.742;16.962;2022-12-18T17:01:37;103028.38;;;-4.30;100.00
73679;BME280;61978;52.742;16.962;2022-12-18T17:04:05;103034.34;;;-4.41;100.00
73679;BME280;61978;52.742;16.962;2022-12-18T17:06:34;103040.50;;;-4.62;100.00
73679;BME280;61978;52.742;16.962;2022-12-18T17:09:07;103050.50;;;-4.79;100.00
73679;BME280;61978;52.742;16.962;2022-12-18T17:11:35;103045.12;;;-4.73;100.00
73679;BME280;61978;52.742;16.962;2022-12-18T17:14:06;103038.31;;;-4.62;100.00
73679;BME280;61978;52.742;16.962;2022-12-18T17:16:34;103039.61;;;-4.61;100.00
73679;BME280;61978;52.742;16.962;2022-12-18T17:19:01;103032.49;;;-4.56;100.00
73679;BME280;61978;52.742;16.962;2022-12-18T17:21:27;103045.06;;;-4.70;100.00
73679;BME280;61978;52.742;16.962;2022-12-18T17:23:54;103044.28;;;-4.75;100.00
73679;BME280;61978;52.742;16.962;2022-12-18T17:26:21;103034.58;;;-4.70;100.00
73679;BME280;61978;52.742;16.962;2022-12-18T17:28:47;103038.00;;;-4.66;100.00
73679;BME280;61978;52.742;16.962;2022-12-18T17:31:22;103030.75;;;-4.57;100.00
73679;BME280;61978;52.742;16.962;2022-12-18T17:33:44;103039.14;;;-4.60;100.00
73679;BME280;61978;52.742;16.962;2022-12-18T17:36:11;103039.00;;;-4.54;100.00
73679;BME280;61978;52.742;16.962;2022-12-18T17:38:38;103049.44;;;-4.70;100.00
73679;BME280;61978;52.742;16.962;2022-12-18T17:41:07;103056.77;;;-4.86;100.00
73679;BME280;61978;52.742;16.962;2022-12-18T17:43:34;103043.59;;;-4.83;100.00
73679;BME280;61978;52.742;16.962;2022-12-18T17:46:02;103044.34;;;-4.78;100.00
73679;BME280;61978;52.742;16.962;2022-12-18T17:48:29;103040.22;;;-4.88;100.00
73679;BME280;61978;52.742;16.962;2022-12-18T17:51:06;103039.35;;;-4.88;100.00
73679;BME280;61978;52.742;16.962;2022-12-18T17:53:28;103038.41;;;-4.86;100.00
73679;BME280;61978;52.742;16.962;2022-12-18T17:55:58;103043.59;;;-5.02;100.00
73679;BME280;61978;52.742;16.962;2022-12-18T17:58:28;103042.48;;;-5.13;100.00
73679;BME280;61978;52.742;16.962;2022-12-18T18:00:54;103036.86;;;-5.15;100.00
73679;BME280;61978;52.742;16.962;2022-12-18T18:03:21;103035.73;;;-5.23;100.00
73679;BME280;61978;52.742;16.962;2022-12-18T18:05:47;103039.61;;;-5.21;100.00
73679;BME280;61978;52.742;16.962;2022-12-18T18:08:14;103043.59;;;-5.24;100.00
73679;BME280;61978;52.742;16.962;2022-12-18T18:10:40;103042.48;;;-5.13;100.00
73679;BME280;61978;52.742;16.962;2022-12-18T18:13:16;103030.88;;;-5.01;100.00
73679;BME280;61978;52.742;16.962;2022-12-18T18:15:56;103014.09;;;-4.92;100.00